createdAt,value
2023-05-14T00:00:45.521Z,14.63
2023-05-14T00:03:12.365Z,14.44
2023-05-14T00:05:39.072Z,14.69
2023-05-14T00:08:06.153Z,14.56
2023-05-14T00:10:32.948Z,14.63
2023-05-14T00:12:59.516Z,14.31
2023-05-14T00:15:26.082Z,14.31
2023-05-14T00:17:52.871Z,14.50
2023-05-14T00:20:19.695Z,14.69
2023-05-14T00:22:46.311Z,14.38
2023-05-14T00:25:12.917Z,14.25
2023-05-14T00:27:39.520Z,14.38
2023-05-14T00:30:07.005Z,14.44
2023-05-14T00:32:33.815Z,14.25
2023-05-14T00:35:00.627Z,14.38
2023-05-14T00:37:27.266Z,14.19
2023-05-14T00:39:53.863Z,14.13
2023-05-14T00:42:20.569Z,14.25
2023-05-14T00:44:47.172Z,14.31
2023-05-14T00:47:13.906Z,14.50
2023-05-14T00:49:41.233Z,14.19
2023-05-14T00:52:08.694Z,13.88
2023-05-14T00:54:36.441Z,14.06
2023-05-14T00:57:04.882Z,13.81
2023-05-14T00:59:32.076Z,14.13
2023-05-14T01:01:58.920Z,13.94
2023-05-14T01:04:25.630Z,13.88
2023-05-14T01:07:10.547Z,14.06
2023-05-14T01:09:39.986Z,13.94
2023-05-14T01:12:27.683Z,13.63
2023-05-14T01:15:06.596Z,13.69
2023-05-14T01:18:01.431Z,13.75
2023-05-14T01:20:28.122Z,13.75
2023-05-14T01:22:54.768Z,13.81
2023-05-14T01:25:21.386Z,13.75
2023-05-14T01:28:12.910Z,13.56
2023-05-14T01:30:49.186Z,13.63
2023-05-14T01:33:18.318Z,13.63
2023-05-14T01:35:45.983Z,13.56
2023-05-14T01:38:17.791Z,13.63
2023-05-14T01:40:46.075Z,13.25
2023-05-14T01:43:13.769Z,13.44
2023-05-14T01:45:40.498Z,13.69
2023-05-14T01:48:07.466Z,13.63
2023-05-14T01:50:34.222Z,13.69
2023-05-14T01:53:01.100Z,13.75
2023-05-14T01:55:27.688Z,13.56
2023-05-14T01:57:54.628Z,13.50
2023-05-14T02:00:26.156Z,13.50
2023-05-14T02:02:53.207Z,13.19
2023-05-14T02:05:20.157Z,13.31
2023-05-14T02:07:46.843Z,13.44
2023-05-14T02:10:13.600Z,13.25
2023-05-14T02:12:40.251Z,13.38
2023-05-14T02:15:08.919Z,13.38
2023-05-14T02:17:35.646Z,13.06
2023-05-14T02:20:02.297Z,13.31
2023-05-14T02:22:28.857Z,13.13
2023-05-14T02:24:56.108Z,12.88
2023-05-14T02:27:22.757Z,12.75
2023-05-14T02:29:49.481Z,13.00
2023-05-14T02:32:16.059Z,12.63
2023-05-14T02:34:42.644Z,12.75
2023-05-14T02:37:09.209Z,13.13
2023-05-14T02:39:35.846Z,13.06
2023-05-14T02:42:02.503Z,12.94
2023-05-14T02:44:29.122Z,12.81
2023-05-14T02:46:55.804Z,12.94
2023-05-14T02:49:22.452Z,12.88
2023-05-14T02:51:49.015Z,12.88
2023-05-14T02:54:16.690Z,12.50
2023-05-14T02:56:43.327Z,12.69
2023-05-14T02:59:09.955Z,12.75
2023-05-14T03:01:37.089Z,12.56
2023-05-14T03:04:04.298Z,12.56
2023-05-14T03:06:31.483Z,12.75
2023-05-14T03:08:58.097Z,12.44
2023-05-14T03:11:24.800Z,12.50
2023-05-14T03:13:51.532Z,12.69
2023-05-14T03:16:18.154Z,12.69
2023-05-14T03:18:44.843Z,12.63
2023-05-14T03:21:11.475Z,12.69
2023-05-14T03:23:38.085Z,12.81
2023-05-14T03:26:04.965Z,12.69
2023-05-14T03:28:31.562Z,12.63
2023-05-14T03:30:58.354Z,12.56
2023-05-14T03:33:25.227Z,12.63
2023-05-14T03:35:51.932Z,12.56
2023-05-14T03:38:18.625Z,12.56
2023-05-14T03:40:45.605Z,12.50
2023-05-14T03:43:12.224Z,12.50
2023-05-14T03:45:39.819Z,12.44
2023-05-14T03:48:06.819Z,12.31
2023-05-14T03:50:33.596Z,12.00
2023-05-14T03:53:00.240Z,12.19
2023-05-14T03:55:26.942Z,12.31
2023-05-14T03:57:53.586Z,12.13
2023-05-14T04:00:21.297Z,12.31
2023-05-14T04:02:48.218Z,12.13
2023-05-14T04:05:14.872Z,12.31
2023-05-14T04:07:41.490Z,12.31
2023-05-14T04:10:08.684Z,12.38
2023-05-14T04:12:35.338Z,12.38
2023-05-14T04:15:02.038Z,12.19
2023-05-14T04:17:28.684Z,12.31
2023-05-14T04:19:55.382Z,12.25
2023-05-14T04:22:21.985Z,12.19
2023-05-14T04:24:48.566Z,12.13
2023-05-14T04:27:21.216Z,12.25
2023-05-14T04:29:48.929Z,12.25
2023-05-14T04:32:15.703Z,12.31
2023-05-14T04:34:42.417Z,12.25
2023-05-14T04:37:10.095Z,12.19
2023-05-14T04:39:36.763Z,12.19
2023-05-14T04:42:03.628Z,12.19
2023-05-14T04:44:30.486Z,12.13
2023-05-14T04:46:57.185Z,12.13
2023-05-14T04:49:23.796Z,12.13
2023-05-14T04:51:50.715Z,12.13
2023-05-14T04:54:17.413Z,12.13
2023-05-14T04:56:44.084Z,12.25
2023-05-14T04:59:10.723Z,12.13
2023-05-14T05:01:37.501Z,12.31
2023-05-14T05:04:04.278Z,12.19
2023-05-14T05:06:31.677Z,12.38
2023-05-14T05:08:59.547Z,12.38
2023-05-14T05:11:27.199Z,12.31
2023-05-14T05:13:53.783Z,12.38
2023-05-14T05:16:20.468Z,12.31
2023-05-14T05:18:47.245Z,12.44
2023-05-14T05:21:13.853Z,12.44
2023-05-14T05:23:40.394Z,12.38
2023-05-14T05:26:07.102Z,12.56
2023-05-14T05:28:33.665Z,12.63
2023-05-14T05:31:00.376Z,12.63
2023-05-14T05:33:27.169Z,12.56
2023-05-14T05:35:53.783Z,12.63
2023-05-14T05:38:20.382Z,12.75
2023-05-14T05:40:46.966Z,12.75
2023-05-14T05:43:14.700Z,12.81
2023-05-14T05:45:41.548Z,12.88
2023-05-14T05:48:08.203Z,12.94
2023-05-14T05:50:34.892Z,12.94
2023-05-14T05:53:01.553Z,12.94
2023-05-14T05:55:28.881Z,12.88
2023-05-14T05:57:56.112Z,12.81
2023-05-14T06:00:24.038Z,12.94
2023-05-14T06:02:50.926Z,12.94
2023-05-14T06:05:17.654Z,13.00
2023-05-14T06:07:44.271Z,13.00
2023-05-14T06:10:11.006Z,13.06
2023-05-14T06:12:37.637Z,13.06
2023-05-14T06:15:04.730Z,13.00
2023-05-14T06:17:31.333Z,13.06
2023-05-14T06:19:57.946Z,13.00
2023-05-14T06:22:24.550Z,13.13
2023-05-14T06:24:51.174Z,13.19
2023-05-14T06:27:17.788Z,13.25
2023-05-14T06:29:44.395Z,13.38
2023-05-14T06:32:11.854Z,13.50
2023-05-14T06:34:38.546Z,13.63
2023-05-14T06:37:05.572Z,13.69
2023-05-14T06:39:32.217Z,13.75
2023-05-14T06:41:58.819Z,14.00
2023-05-14T06:44:25.484Z,14.06
2023-05-14T06:46:52.093Z,14.25
2023-05-14T06:49:18.738Z,14.50
2023-05-14T06:51:45.859Z,14.81
2023-05-14T06:54:12.905Z,14.88
2023-05-14T06:56:39.528Z,15.06
2023-05-14T06:59:06.191Z,15.31
2023-05-14T07:01:32.803Z,15.44
2023-05-14T07:03:59.480Z,15.63
2023-05-14T07:06:26.099Z,15.75
2023-05-14T07:08:53.309Z,15.94
2023-05-14T07:11:19.946Z,16.06
2023-05-14T07:13:46.544Z,15.88
2023-05-14T07:16:13.243Z,15.94
2023-05-14T07:18:40.335Z,15.88
2023-05-14T07:21:07.083Z,16.25
2023-05-14T07:23:36.181Z,16.13
2023-05-14T07:26:03.339Z,16.25
2023-05-14T07:28:30.020Z,16.44
2023-05-14T07:30:56.807Z,16.38
2023-05-14T07:33:24.138Z,16.88
2023-05-14T07:35:51.556Z,17.25
2023-05-14T07:38:19.740Z,17.31
2023-05-14T07:40:46.390Z,17.56
2023-05-14T07:43:14.547Z,17.75
2023-05-14T07:45:41.377Z,18.13
2023-05-14T07:48:08.323Z,18.31
2023-05-14T07:50:34.988Z,18.13
2023-05-14T07:53:01.640Z,18.25
2023-05-14T07:55:28.323Z,18.63
2023-05-14T07:57:54.980Z,18.88
2023-05-14T08:00:21.676Z,19.25
2023-05-14T08:02:49.301Z,19.38
2023-05-14T08:05:16.644Z,19.56
2023-05-14T08:07:43.443Z,18.88
2023-05-14T08:10:10.644Z,19.13
2023-05-14T08:12:37.332Z,18.50
2023-05-14T08:15:04.467Z,18.25
2023-05-14T08:17:31.066Z,18.63
2023-05-14T08:19:57.686Z,19.00
2023-05-14T08:22:24.293Z,18.56
2023-05-14T08:24:50.896Z,19.13
2023-05-14T08:27:17.523Z,20.06
2023-05-14T08:29:44.142Z,20.13
2023-05-14T08:32:22.166Z,20.13
2023-05-14T08:34:50.770Z,19.94
2023-05-14T08:37:17.561Z,20.06
2023-05-14T08:39:44.327Z,20.50
2023-05-14T08:42:13.500Z,21.06
2023-05-14T08:44:50.182Z,20.75
2023-05-14T08:47:21.380Z,20.75
2023-05-14T08:49:53.149Z,21.25
2023-05-14T08:52:22.213Z,21.19
2023-05-14T08:54:52.718Z,21.00
2023-05-14T08:57:20.816Z,21.63
2023-05-14T08:59:47.719Z,21.75
2023-05-14T09:02:16.929Z,21.56
2023-05-14T09:04:44.268Z,21.81
2023-05-14T09:07:11.587Z,21.94
2023-05-14T09:09:38.656Z,22.50
2023-05-14T09:12:06.510Z,23.06
2023-05-14T09:14:33.605Z,21.88
2023-05-14T09:17:00.306Z,21.88
2023-05-14T09:19:27.154Z,22.38
2023-05-14T09:21:58.567Z,21.88
2023-05-14T09:24:29.061Z,21.88
2023-05-14T09:26:57.556Z,22.63
2023-05-14T09:29:29.470Z,23.56
2023-05-14T09:31:58.126Z,23.81
2023-05-14T09:34:32.715Z,23.56
2023-05-14T09:37:07.970Z,23.69
2023-05-14T09:39:36.661Z,23.56
2023-05-14T09:42:04.062Z,22.75
2023-05-14T09:44:31.830Z,23.13
2023-05-14T09:46:58.714Z,23.75
2023-05-14T09:49:25.410Z,23.94
2023-05-14T09:51:51.996Z,23.75
2023-05-14T09:54:18.662Z,24.13
2023-05-14T09:56:45.503Z,24.25
2023-05-14T09:59:12.207Z,23.56
2023-05-14T10:01:41.438Z,23.63
2023-05-14T10:04:11.029Z,24.13
2023-05-14T10:06:39.627Z,24.63
2023-05-14T10:09:12.954Z,25.00
2023-05-14T10:11:43.596Z,25.13
2023-05-14T10:14:28.248Z,25.75
2023-05-14T10:16:58.581Z,24.38
2023-05-14T10:19:26.689Z,24.63
2023-05-14T10:21:57.225Z,24.31
2023-05-14T10:24:25.600Z,24.88
2023-05-14T10:26:52.758Z,25.13
2023-05-14T10:29:19.380Z,24.56
2023-05-14T10:31:56.238Z,23.63
2023-05-14T10:34:38.917Z,24.81
2023-05-14T10:37:09.216Z,25.56
2023-05-14T10:39:53.726Z,26.13
2023-05-14T10:42:46.326Z,25.94
2023-05-14T10:45:14.916Z,25.56
2023-05-14T10:47:48.194Z,25.25
2023-05-14T10:50:16.142Z,25.63
2023-05-14T10:52:44.774Z,25.94
2023-05-14T10:55:17.004Z,25.63
2023-05-14T10:57:46.054Z,25.50
2023-05-14T11:00:14.633Z,25.56
2023-05-14T11:02:43.533Z,25.94
2023-05-14T11:05:16.947Z,26.31
2023-05-14T11:07:46.080Z,25.69
2023-05-14T11:10:15.029Z,25.63
2023-05-14T11:12:44.734Z,26.88
2023-05-14T11:15:14.463Z,27.00
2023-05-14T11:17:43.393Z,25.56
2023-05-14T11:20:11.271Z,26.25
2023-05-14T11:22:39.836Z,26.56
2023-05-14T11:25:07.713Z,26.63
2023-05-14T11:27:38.584Z,26.88
2023-05-14T11:30:06.638Z,27.25
2023-05-14T11:32:33.849Z,27.13
2023-05-14T11:35:00.771Z,26.94
2023-05-14T11:37:27.390Z,26.31
2023-05-14T11:39:55.752Z,27.31
2023-05-14T11:42:23.700Z,26.00
2023-05-14T11:44:52.087Z,26.25
2023-05-14T11:47:21.457Z,26.25
2023-05-14T11:49:49.407Z,26.38
2023-05-14T11:52:19.420Z,26.38
2023-05-14T11:54:46.333Z,26.56
2023-05-14T11:57:16.221Z,26.56
2023-05-14T11:59:43.556Z,26.38
2023-05-14T12:02:12.495Z,26.00
2023-05-14T12:04:40.622Z,26.06
2023-05-14T12:07:14.606Z,26.19
2023-05-14T12:09:49.583Z,26.25
2023-05-14T12:12:22.141Z,27.25
2023-05-14T12:14:50.583Z,27.00
2023-05-14T12:17:17.396Z,27.13
2023-05-14T12:19:46.435Z,27.69
2023-05-14T12:22:17.165Z,27.69
2023-05-14T12:24:53.297Z,27.38
2023-05-14T12:27:26.239Z,26.50
2023-05-14T12:30:27.558Z,26.69
2023-05-14T12:32:54.274Z,27.19
2023-05-14T12:35:22.495Z,27.31
2023-05-14T12:37:49.526Z,26.75
2023-05-14T12:40:16.198Z,26.88
2023-05-14T12:42:42.830Z,26.75
2023-05-14T12:45:09.806Z,26.63
2023-05-14T12:47:37.185Z,26.88
2023-05-14T12:50:05.833Z,26.94
2023-05-14T12:52:38.619Z,26.69
2023-05-14T12:55:10.087Z,27.19
2023-05-14T12:57:38.935Z,27.06
2023-05-14T13:00:07.904Z,26.94
2023-05-14T13:02:42.395Z,26.44
2023-05-14T13:05:10.968Z,26.63
2023-05-14T13:07:38.194Z,26.94
2023-05-14T13:10:08.485Z,27.13
2023-05-14T13:12:35.172Z,27.06
2023-05-14T13:15:01.995Z,26.56
2023-05-14T13:17:28.674Z,26.50
2023-05-14T13:19:55.544Z,26.19
2023-05-14T13:22:22.118Z,26.38
2023-05-14T13:24:48.776Z,26.06
2023-05-14T13:27:15.431Z,26.31
2023-05-14T13:29:42.303Z,26.75
2023-05-14T13:32:08.984Z,26.69
2023-05-14T13:34:36.298Z,26.25
2023-05-14T13:37:03.983Z,26.63
2023-05-14T13:39:30.687Z,26.50
2023-05-14T13:41:57.229Z,26.19
2023-05-14T13:44:24.309Z,26.13
2023-05-14T13:46:51.180Z,26.50
2023-05-14T13:49:17.993Z,25.88
2023-05-14T13:51:44.809Z,26.25
2023-05-14T13:54:11.473Z,26.63
2023-05-14T13:56:38.116Z,26.50
2023-05-14T13:59:04.971Z,26.25
2023-05-14T14:01:31.891Z,26.13
2023-05-14T14:03:58.675Z,25.94
2023-05-14T14:06:27.333Z,26.00
2023-05-14T14:08:54.054Z,26.13
2023-05-14T14:11:21.055Z,26.19
2023-05-14T14:13:47.651Z,25.88
2023-05-14T14:16:14.394Z,25.56
2023-05-14T14:18:43.008Z,25.81
2023-05-14T14:21:10.192Z,25.75
2023-05-14T14:23:36.811Z,25.75
2023-05-14T14:26:03.788Z,25.44
2023-05-14T14:28:30.699Z,25.75
2023-05-14T14:30:57.303Z,25.50
2023-05-14T14:33:23.899Z,25.50
2023-05-14T14:35:50.447Z,25.50
2023-05-14T14:38:17.055Z,25.75
2023-05-14T14:40:43.718Z,25.69
2023-05-14T14:43:10.312Z,25.25
2023-05-14T14:45:36.988Z,25.25
2023-05-14T14:48:33.912Z,25.25
2023-05-14T14:51:01.548Z,25.63
2023-05-14T14:53:28.205Z,25.56
2023-05-14T14:55:55.598Z,25.25
2023-05-14T14:58:22.899Z,25.63
2023-05-14T15:00:53.059Z,25.13
2023-05-14T15:03:21.247Z,25.38
2023-05-14T15:05:49.055Z,25.19
2023-05-14T15:08:15.915Z,25.00
2023-05-14T15:10:42.798Z,24.94
2023-05-14T15:13:09.453Z,24.94
2023-05-14T15:15:36.361Z,24.75
2023-05-14T15:18:04.327Z,24.75
2023-05-14T15:20:31.131Z,24.50
2023-05-14T15:22:57.865Z,24.06
2023-05-14T15:25:26.413Z,24.63
2023-05-14T15:27:53.355Z,24.06
2023-05-14T15:30:20.107Z,24.44
2023-05-14T15:32:46.936Z,24.38
2023-05-14T15:35:13.849Z,24.25
2023-05-14T15:37:44.195Z,24.06
2023-05-14T15:40:11.988Z,24.25
2023-05-14T15:42:44.441Z,23.81
2023-05-14T15:45:13.322Z,23.94
2023-05-14T15:47:41.187Z,23.94
2023-05-14T15:50:09.092Z,23.88
2023-05-14T15:52:36.486Z,23.75
2023-05-14T15:55:04.410Z,23.75
2023-05-14T15:57:31.674Z,23.63
2023-05-14T15:59:58.316Z,23.75
2023-05-14T16:02:24.977Z,23.31
2023-05-14T16:04:51.589Z,23.69
2023-05-14T16:07:18.184Z,23.75
2023-05-14T16:09:44.776Z,23.38
2023-05-14T16:12:12.438Z,22.94
2023-05-14T16:14:41.216Z,23.38
2023-05-14T16:17:08.832Z,23.25
2023-05-14T16:19:35.513Z,22.88
2023-05-14T16:22:02.164Z,22.81
2023-05-14T16:24:28.771Z,22.69
2023-05-14T16:26:56.076Z,22.75
2023-05-14T16:29:22.812Z,22.81
2023-05-14T16:31:49.575Z,22.75
2023-05-14T16:34:16.227Z,22.69
2023-05-14T16:36:43.283Z,22.81
2023-05-14T16:39:11.400Z,22.50
2023-05-14T16:41:38.057Z,22.44
2023-05-14T16:44:04.840Z,22.56
2023-05-14T16:46:32.114Z,22.56
2023-05-14T16:48:58.986Z,22.19
2023-05-14T16:51:25.664Z,22.38
2023-05-14T16:53:52.441Z,22.38
2023-05-14T16:56:21.365Z,22.13
2023-05-14T16:58:48.018Z,21.94
2023-05-14T17:01:14.645Z,21.88
2023-05-14T17:03:41.700Z,21.75
2023-05-14T17:06:10.043Z,21.75
2023-05-14T17:08:36.802Z,21.88
2023-05-14T17:11:05.712Z,21.63
2023-05-14T17:13:33.310Z,21.75
2023-05-14T17:16:00.522Z,21.63
2023-05-14T17:18:27.240Z,21.50
2023-05-14T17:20:53.910Z,21.13
2023-05-14T17:23:20.618Z,20.75
2023-05-14T17:25:47.271Z,20.56
2023-05-14T17:28:13.854Z,20.88
2023-05-14T17:30:40.816Z,20.75
2023-05-14T17:33:07.508Z,20.31
2023-05-14T17:35:36.179Z,19.94
2023-05-14T17:38:03.260Z,20.13
2023-05-14T17:40:29.915Z,20.13
2023-05-14T17:42:56.506Z,20.25
2023-05-14T17:45:23.440Z,20.00
2023-05-14T17:47:51.433Z,19.94
2023-05-14T17:50:18.787Z,19.69
2023-05-14T17:52:46.139Z,19.69
2023-05-14T17:55:13.066Z,19.88
2023-05-14T17:57:39.987Z,19.25
2023-05-14T18:00:08.207Z,19.38
2023-05-14T18:02:35.141Z,19.19
2023-05-14T18:05:02.824Z,19.13
2023-05-14T18:07:30.721Z,19.06
2023-05-14T18:09:57.839Z,18.75
2023-05-14T18:12:27.523Z,18.81
2023-05-14T18:14:54.322Z,18.94
2023-05-14T18:17:21.165Z,18.94
2023-05-14T18:19:47.854Z,18.63
2023-05-14T18:22:15.423Z,18.94
2023-05-14T18:24:44.122Z,18.94
2023-05-14T18:27:11.046Z,18.69
2023-05-14T18:29:37.735Z,18.50
2023-05-14T18:32:04.946Z,18.19
2023-05-14T18:34:31.551Z,18.25
2023-05-14T18:36:58.418Z,18.19
2023-05-14T18:39:25.028Z,18.38
2023-05-14T18:41:52.020Z,17.88
2023-05-14T18:44:18.785Z,18.06
2023-05-14T18:46:45.752Z,18.19
2023-05-14T18:49:12.538Z,17.75
2023-05-14T18:51:39.129Z,17.94
2023-05-14T18:54:05.856Z,17.81
2023-05-14T18:56:32.585Z,17.44
2023-05-14T18:58:59.378Z,17.75
2023-05-14T19:01:26.133Z,17.56
2023-05-14T19:03:53.220Z,17.25
2023-05-14T19:06:20.176Z,16.94
2023-05-14T19:08:46.778Z,16.94
2023-05-14T19:11:13.407Z,17.06
2023-05-14T19:13:40.031Z,17.06
2023-05-14T19:16:06.717Z,17.25
2023-05-14T19:18:33.690Z,17.50
2023-05-14T19:21:00.535Z,17.06
2023-05-14T19:23:27.139Z,17.00
2023-05-14T19:25:53.809Z,16.69
2023-05-14T19:28:20.517Z,17.19
2023-05-14T19:30:47.720Z,16.88
2023-05-14T19:33:14.365Z,16.94
2023-05-14T19:35:40.936Z,16.88
2023-05-14T19:38:09.113Z,16.88
2023-05-14T19:40:35.713Z,16.81
2023-05-14T19:43:02.306Z,16.56
2023-05-14T19:45:29.004Z,16.63
2023-05-14T19:47:55.834Z,16.75
2023-05-14T19:50:22.453Z,16.50
2023-05-14T19:52:49.046Z,16.31
2023-05-14T19:55:15.641Z,16.25
2023-05-14T19:57:42.244Z,16.38
2023-05-14T20:00:09.462Z,15.63
2023-05-14T20:02:36.120Z,15.94
2023-05-14T20:05:02.828Z,16.13
2023-05-14T20:07:29.458Z,15.75
2023-05-14T20:09:56.263Z,15.50
2023-05-14T20:12:22.916Z,15.69
2023-05-14T20:14:49.517Z,15.94
2023-05-14T20:17:16.291Z,16.13
2023-05-14T20:19:43.749Z,15.94
2023-05-14T20:22:10.445Z,15.94
2023-05-14T20:24:37.072Z,15.75
2023-05-14T20:27:03.936Z,15.75
2023-05-14T20:29:30.518Z,15.69
2023-05-14T20:31:57.059Z,15.63
2023-05-14T20:34:23.710Z,15.94
2023-05-14T20:36:50.704Z,15.63
2023-05-14T20:39:17.300Z,15.50
2023-05-14T20:41:45.613Z,15.75
2023-05-14T20:44:12.265Z,15.94
2023-05-14T20:46:39.139Z,15.44
2023-05-14T20:49:05.760Z,15.75
2023-05-14T20:51:32.675Z,15.56
2023-05-14T20:53:59.315Z,15.50
2023-05-14T20:56:26.472Z,15.69
2023-05-14T20:58:53.095Z,15.88
2023-05-14T21:01:19.726Z,16.06
2023-05-14T21:03:46.456Z,16.00
2023-05-14T21:06:13.235Z,16.13
2023-05-14T21:08:40.406Z,15.81
2023-05-14T21:11:07.041Z,15.63
2023-05-14T21:13:33.676Z,15.38
2023-05-14T21:16:00.599Z,15.44
2023-05-14T21:18:30.590Z,15.75
2023-05-14T21:20:57.300Z,15.81
2023-05-14T21:23:23.945Z,15.88
2023-05-14T21:25:51.108Z,15.81
2023-05-14T21:28:17.676Z,15.63
2023-05-14T21:30:44.315Z,15.63
2023-05-14T21:33:11.059Z,15.56
2023-05-14T21:35:37.756Z,15.31
2023-05-14T21:38:04.523Z,15.38
2023-05-14T21:40:31.259Z,15.19
2023-05-14T21:42:57.856Z,15.25
2023-05-14T21:45:24.438Z,15.50
2023-05-14T21:47:51.189Z,15.25
2023-05-14T21:50:17.957Z,15.06
2023-05-14T21:52:44.575Z,15.13
2023-05-14T21:55:11.345Z,15.19
2023-05-14T21:57:38.164Z,15.13
2023-05-14T22:00:08.671Z,15.06
2023-05-14T22:02:35.299Z,15.06
2023-05-14T22:05:02.015Z,15.06
2023-05-14T22:07:28.641Z,14.94
2023-05-14T22:09:55.892Z,15.13
2023-05-14T22:12:22.500Z,14.88
2023-05-14T22:14:49.129Z,14.88
2023-05-14T22:17:15.930Z,14.94
2023-05-14T22:19:42.543Z,14.94
2023-05-14T22:22:09.147Z,14.94
2023-05-14T22:24:35.745Z,14.69
2023-05-14T22:27:02.405Z,14.69
2023-05-14T22:29:29.008Z,14.50
2023-05-14T22:31:55.811Z,14.69
2023-05-14T22:34:22.486Z,14.44
2023-05-14T22:36:49.097Z,14.56
2023-05-14T22:39:15.774Z,14.63
2023-05-14T22:41:42.380Z,14.75
2023-05-14T22:44:08.928Z,14.56
2023-05-14T22:46:35.795Z,14.38
2023-05-14T22:49:02.386Z,14.63
2023-05-14T22:51:29.006Z,14.44
2023-05-14T22:53:55.574Z,13.94
2023-05-14T22:56:22.312Z,14.06
2023-05-14T22:58:48.941Z,14.19
2023-05-14T23:01:15.832Z,14.38
2023-05-14T23:03:42.458Z,14.31
2023-05-14T23:06:09.081Z,14.13
2023-05-14T23:08:35.701Z,14.38
2023-05-14T23:11:02.286Z,14.25
2023-05-14T23:13:28.892Z,14.44
2023-05-14T23:15:55.521Z,14.19
2023-05-14T23:18:23.897Z,14.38
2023-05-14T23:20:50.700Z,14.13
2023-05-14T23:23:17.337Z,14.19
2023-05-14T23:25:44.194Z,14.06
2023-05-14T23:28:11.183Z,13.94
2023-05-14T23:30:37.915Z,14.13
2023-05-14T23:33:04.726Z,14.13
2023-05-14T23:35:31.474Z,14.25
2023-05-14T23:37:58.204Z,14.31
2023-05-14T23:40:24.866Z,14.38
2023-05-14T23:42:51.641Z,14.19
2023-05-14T23:45:18.331Z,14.38
2023-05-14T23:47:45.146Z,14.38
2023-05-14T23:50:11.738Z,14.13
2023-05-14T23:52:38.320Z,14.31
2023-05-14T23:55:05.368Z,14.25
2023-05-14T23:57:32.078Z,14.13
2023-05-14T23:59:58.790Z,13.94
